ホムトヴォ空港(ユジノサハリンスク)の過去48時間の天気

ホムトヴォ空港(ユジノサハリンスク) (Yuzhno-Sakhalinsk)

現在時刻: 9/28 17:49 +10 (9/28 07:49 UTC) 以下の時間は現地時間です。

過去48時間のMETAR気象情報
時間 風向 風速(m/s) 視程 気温(℃) 湿度(%) 気圧(hPa) 天気現象
28 17:30 北西 1 10km以上 14 63 1009
28 17:00 西北西 4 10km以上 15 59 1009
28 16:30 西 4 10km以上 15 59 1008
28 16:00 西北西 4 10km以上 15 59 1008
28 15:30 西北西 5 10km以上 15 55 1008
28 15:00 西北西 6 10km以上 16 51 1008
28 14:30 西北西 6 10km以上 16 48 1008
28 14:00 西 5 10km以上 16 51 1008
28 13:30 西北西 5 10km以上 16 48 1008
28 13:00 北西 3 10km以上 15 41 1009
28 12:30 4 10km以上 15 55 1009
28 12:00 6 10km以上 14 59 1010
28 11:30 5 10km以上 13 62 1010
28 11:00 北北西 6 10km以上 13 77 1010
28 10:30 北北西 6 10km以上 12 77 1011
28 10:00 4 10km以上 11 87 1011
28 09:30 5 10km以上 10 87 1011
28 09:00 北北西 4 6000m 10 94 1011 弱いしゅう雨
28 08:30 北北西 3 4700m 9 93 1011 弱いしゅう雨 もや
28 08:00 北北西 3 10km以上 9 93 1011 弱いしゅう雨
28 07:30 北北西 3 8000m 9 93 1011 弱いしゅう雨
28 07:00 北北西 3 10km以上 9 87 1011
28 06:30 北北西 4 10km以上 8 93 1011 弱いしゅう雨
28 06:00 北北西 4 10km以上 8 93 1011 弱いしゅう雨
28 05:30 北北西 4 10km以上 8 93 1011 弱いしゅう雨
UHSS 280730Z 31001MPS 9999 SCT038 14/07 Q1009 R01/CLRD70 NOSIG RMK QFE755/1007
UHSS 280700Z 29004MPS 9999 SCT038 15/07 Q1009 R01/CLRD70 NOSIG RMK QFE755/1007
UHSS 280630Z 28004MPS 9999 SCT045 15/07 Q1008 R01/CLRD70 NOSIG RMK QFE755/1007
UHSS 280600Z 29004MPS 9999 SCT044 15/07 Q1008 R01/CLRD70 NOSIG RMK QFE755/1007
UHSS 280530Z 30005MPS 9999 SCT040 15/06 Q1008 R01/70D NOSIG RMK QFE755/1007
UHSS 280500Z 29006MPS 9999 SCT040 16/06 Q1008 R01/70D NOSIG RMK QFE755/1006
UHSS 280430Z 29006MPS 9999 SCT040 16/05 Q1008 R01/70D NOSIG RMK QFE755/1006
UHSS 280400Z 28005MPS 9999 SCT040 16/06 Q1008 R01/70D NOSIG RMK QFE755/1007
UHSS 280330Z 30005MPS 260V330 9999 SCT040 16/05 Q1008 R01/70D NOSIG RMK QFE755/1007
UHSS 280300Z 31003MPS 270V350 9999 SCT040 15/02 Q1009 R01/70D NOSIG RMK QFE755/1007
UHSS 280230Z 35004MPS 9999 SCT040 15/06 Q1009 R01/70D NOSIG RMK QFE756/1008
UHSS 280200Z 35006MPS 9999 SCT040 14/06 Q1010 R01/70D NOSIG RMK QFE756/1008
UHSS 280130Z 35005MPS 9999 SCT033 13/06 Q1010 R01/290060 NOSIG RMK MT OBSC QFE756/1008
UHSS 280100Z 34006MPS 9999 SCT029CB 13/09 Q1010 R01/290060 NOSIG RMK MT OBSC QFE756/1009
UHSS 280030Z 34006MPS 9999 SCT024CB 12/08 Q1011 R01/290060 NOSIG RMK MT OBSC QFE757/1009
UHSS 280000Z 35004MPS 9999 SCT013CB 11/09 Q1011 R01/250255 NOSIG RMK MT OBSC QFE757/1009
UHSS 272330Z 35005MPS 9999 SCT009 BKN023CB 10/08 Q1011 R01/250255 NOSIG RMK MT OBSC QFE757/1009
UHSS 272300Z 33004MPS 6000 -SHRA SCT005 BKN017CB 10/09 Q1011 R01/250255 NOSIG RMK MT OBSC QFE757/1009
UHSS 272230Z 33003MPS 4700 -SHRA BR SCT006 BKN017CB 09/08 Q1011 R01/250255 NOSIG RMK MT OBSC QFE757/1009
UHSS 272200Z 33003MPS 9999 -SHRA SCT007 BKN014CB 09/08 Q1011 R01/250255 NOSIG RMK MT OBSC QFE757/1010
UHSS 272130Z 34003MPS 8000 -SHRA BKN009 BKN022CB 09/08 Q1011 R01/250255 NOSIG RMK MT OBSC QFE757/1010
UHSS 272100Z 34003MPS 9999 SCT009 BKN040CB 09/07 Q1011 R01/250255 NOSIG RMK MT OBSC QFE757/1010
UHSS 272030Z 34004MPS 9999 -SHRA SCT009 BKN036CB 08/07 Q1011 R01/250255 NOSIG RMK MT OBSC QFE757/1010
UHSS 272000Z 33004MPS 9999 -SHRA SCT009 BKN036CB 08/07 Q1011 R01/250255 NOSIG RMK MT OBSC QFE757/1010
UHSS 271930Z 34004MPS 9999 -SHRA SCT008 BKN038CB 08/07 Q1011 R01/250255 NOSIG RMK MT OBSC QFE757/1010